Terminal Aerodrome Forecast
Issued by NWS

Home | Current Version | Previous Version | Graphics & Text | Print | Product List | Glossary On
Versions: 1 2 3 4 5 6 7 8 9
634
FTUS43 KTOP 202329
TAFFOE
TAF
KFOE 202329Z 2100/2124 36008KT P6SM SKC
     FM211500 04013G22KT P6SM BKN100=

USA.gov is the U.S. government's official web portal to all federal, state and local government web resources and services.